Time;durP1;ratioP1;P1;durP2;ratioP2;P2;SDS_P1;SDS_P2;PMS_P1;PMS_P2;Temp;Humidity;BMP_temperature;BMP_pressure;BME280_temperature;BME280_humidity;BME280_pressure;Samples;Min_cycle;Max_cycle;Signal;HPM_P1;HPM_P2
2022/02/07 00:01:19;;;;;;;99.18;8.88;;;;;;;;;;5028915;28;20391;-50
2022/02/07 00:03:51;;;;;;;137.57;10.82;;;;;;;;;;5029211;28;20040;-51
2022/02/07 00:06:17;;;;;;;;;;;;;;;;;;5026893;28;20383;-48
2022/02/07 00:08:46;;;;;;;66.70;6.03;;;;;;;;;;5029298;28;19962;-51
2022/02/07 00:11:13;;;;;;;59.72;6.30;;;;;;;;;;5029827;28;20022;-53
2022/02/07 00:13:40;;;;;;;248.88;20.48;;;;;;;;;;5021687;28;20099;-51
2022/02/07 00:16:07;;;;;;;237.15;17.92;;;;;;;;;;5030209;28;20025;-50
2022/02/07 00:18:36;;;;;;;112.72;9.85;;;;;;;;;;5029881;28;20043;-47
2022/02/07 00:21:03;;;;;;;119.97;11.32;;;;;;;;;;5029823;28;20030;-48
2022/02/07 00:23:30;;;;;;;94.15;9.10;;;;;;;;;;5028410;28;20080;-50
2022/02/07 00:25:57;;;;;;;75.55;7.85;;;;;;;;;;5026968;28;20034;-49
2022/02/07 00:28:24;;;;;;;220.70;17.00;;;;;;;;;;5030334;28;20487;-50
2022/02/07 00:30:51;;;;;;;280.73;21.60;;;;;;;;;;5030684;28;20017;-49
2022/02/07 00:33:19;;;;;;;318.80;24.00;;;;;;;;;;5011183;28;20112;-53
2022/02/07 00:35:46;;;;;;;259.63;20.27;;;;;;;;;;5027707;28;20052;-51
2022/02/07 00:38:18;;;;;;;225.88;17.33;;;;;;;;;;5024977;28;21152;-54
2022/02/07 00:41:01;;;;;;;146.95;13.80;;;;;;;;;;5025381;28;20037;-54
2022/02/07 00:43:36;;;;;;;124.55;11.52;;;;;;;;;;5027866;28;20045;-53
2022/02/07 00:46:12;;;;;;;107.25;10.48;;;;;;;;;;5030312;28;20423;-51
2022/02/07 00:48:40;;;;;;;88.25;10.60;;;;;;;;;;5031912;28;20483;-49
2022/02/07 00:51:10;;;;;;;70.85;8.50;;;;;;;;;;5031752;28;20025;-54
2022/02/07 00:53:37;;;;;;;201.05;17.92;;;;;;;;;;5033053;28;20021;-50
2022/02/07 00:56:04;;;;;;;108.38;11.35;;;;;;;;;;5032845;28;20030;-55
2022/02/07 00:58:32;;;;;;;103.30;11.50;;;;;;;;;;5032627;28;20513;-53
2022/02/07 01:00:59;;;;;;;95.35;9.52;;;;;;;;;;5032870;28;20115;-54
2022/02/07 01:03:26;;;;;;;83.43;9.07;;;;;;;;;;5032325;28;20042;-52
2022/02/07 01:05:53;;;;;;;332.15;29.25;;;;;;;;;;5032319;28;20029;-53
2022/02/07 01:08:27;;;;;;;373.25;28.52;;;;;;;;;;5014708;28;20529;-53
2022/02/07 01:11:07;;;;;;;199.65;15.52;;;;;;;;;;5031925;28;20368;-53
2022/02/07 01:14:01;;;;;;;188.10;17.05;;;;;;;;;;5032474;28;20171;-52
2022/02/07 01:47:00;;;;;;;132.95;12.48;;;;;;;;;;5023623;28;20068;-51
2022/02/07 01:49:39;;;;;;;101.93;11.40;;;;;;;;;;5028491;28;20134;-52
2022/02/07 01:52:24;;;;;;;86.10;11.27;;;;;;;;;;5029179;28;20407;-53
2022/02/07 01:55:15;;;;;;;91.25;10.82;;;;;;;;;;5027468;28;20017;-54
2022/02/07 01:57:45;;;;;;;90.80;10.85;;;;;;;;;;5029203;28;20029;-55
2022/02/07 02:00:12;;;;;;;69.65;10.13;;;;;;;;;;5028785;28;20056;-52
2022/02/07 02:02:40;;;;;;;71.47;9.60;;;;;;;;;;5028762;28;20037;-55
2022/02/07 02:05:07;;;;;;;70.85;9.43;;;;;;;;;;5026786;28;20029;-51
2022/02/07 02:07:34;;;;;;;49.72;8.65;;;;;;;;;;5010152;28;20030;-52
2022/02/07 02:10:01;;;;;;;65.68;9.13;;;;;;;;;;5019353;28;20026;-51
2022/02/07 02:12:32;;;;;;;69.93;11.18;;;;;;;;;;5017944;28;20030;-52
2022/02/07 02:15:50;;;;;;;73.75;10.98;;;;;;;;;;5019334;28;20037;-50
2022/02/07 02:37:26;;;;;;;111.60;16.15;;;;;;;;;;5019768;28;20034;-53
2022/02/07 02:47:54;;;;;;;115.28;16.95;;;;;;;;;;5018377;28;20037;-53
2022/02/07 02:50:31;;;;;;;105.80;16.55;;;;;;;;;;5019579;28;20029;-54
2022/02/07 02:53:00;;;;;;;133.00;15.68;;;;;;;;;;5019077;28;20034;-52
2022/02/07 02:55:27;;;;;;;132.10;16.55;;;;;;;;;;5018390;28;20027;-52
2022/02/07 02:57:54;;;;;;;137.35;17.35;;;;;;;;;;5022427;28;20097;-54
2022/02/07 03:00:21;;;;;;;133.68;17.27;;;;;;;;;;4994019;28;20447;-53
2022/02/07 03:02:49;;;;;;;129.80;17.83;;;;;;;;;;5020109;28;20129;-55
2022/02/07 03:05:16;;;;;;;111.35;16.20;;;;;;;;;;5003864;28;20391;-53
2022/02/07 03:07:44;;;;;;;130.77;17.33;;;;;;;;;;5019895;28;20065;-55
2022/02/07 03:10:21;;;;;;;104.97;15.80;;;;;;;;;;5030509;28;20053;-55
2022/02/07 03:13:00;;;;;;;121.07;19.23;;;;;;;;;;5030741;28;20052;-56
2022/02/07 03:18:12;;;;;;;106.10;18.88;;;;;;;;;;5030836;28;20143;-57
2022/02/07 03:20:39;;;;;;;112.65;19.67;;;;;;;;;;5030733;28;20037;-53
2022/02/07 03:23:06;;;;;;;112.55;20.15;;;;;;;;;;5030170;28;20117;-60
2022/02/07 03:25:33;;;;;;;95.97;19.08;;;;;;;;;;5030979;28;20052;-60
2022/02/07 03:28:01;;;;;;;99.53;18.67;;;;;;;;;;5030914;28;20037;-60
2022/02/07 03:30:28;;;;;;;92.30;17.13;;;;;;;;;;5030122;28;20079;-60
2022/02/07 03:32:55;;;;;;;73.93;13.40;;;;;;;;;;5013265;28;20033;-60
2022/02/07 03:35:22;;;;;;;92.88;15.50;;;;;;;;;;5030116;28;20403;-60
2022/02/07 03:37:49;;;;;;;67.45;12.70;;;;;;;;;;5030263;28;20057;-60
2022/02/07 03:40:16;;;;;;;76.13;12.57;;;;;;;;;;5030188;28;20029;-60
2022/02/07 03:42:43;;;;;;;73.05;12.68;;;;;;;;;;5012597;28;20037;-60
2022/02/07 03:45:10;;;;;;;76.10;13.55;;;;;;;;;;5030852;28;20048;-60
2022/02/07 03:47:37;;;;;;;62.67;11.77;;;;;;;;;;5030559;28;20033;-60
2022/02/07 03:50:05;;;;;;;70.47;11.15;;;;;;;;;;5031271;28;20041;-60
2022/02/07 03:52:32;;;;;;;65.55;12.43;;;;;;;;;;5030616;28;20491;-60
2022/02/07 03:54:59;;;;;;;80.95;13.10;;;;;;;;;;5013462;28;20155;-60
2022/02/07 03:57:26;;;;;;;53.72;12.38;;;;;;;;;;5031186;28;20551;-60
2022/02/07 03:59:53;;;;;;;82.63;12.13;;;;;;;;;;5031173;28;20526;-60
2022/02/07 04:02:21;;;;;;;61.65;11.95;;;;;;;;;;5035424;28;20041;-60
2022/02/07 04:04:55;;;;;;;67.57;11.73;;;;;;;;;;5035137;28;20035;-60
2022/02/07 04:07:22;;;;;;;62.83;11.50;;;;;;;;;;5035224;28;20041;-60
2022/02/07 04:09:54;;;;;;;73.50;11.63;;;;;;;;;;5035195;28;20056;-60
2022/02/07 04:12:25;;;;;;;70.35;12.88;;;;;;;;;;5034711;28;20101;-60
2022/02/07 04:14:52;;;;;;;73.22;11.07;;;;;;;;;;5034957;28;20037;-60
2022/02/07 04:17:21;;;;;;;53.65;10.63;;;;;;;;;;5034674;28;20028;-60
2022/02/07 04:19:56;;;;;;;56.78;10.30;;;;;;;;;;5034669;28;20041;-60
2022/02/07 04:22:24;;;;;;;66.20;10.63;;;;;;;;;;5034709;28;20461;-60
2022/02/07 04:24:51;;;;;;;61.45;9.52;;;;;;;;;;5034380;28;20095;-60
2022/02/07 04:27:18;;;;;;;63.88;10.52;;;;;;;;;;5035017;28;20049;-60
2022/02/07 04:29:45;;;;;;;73.72;10.50;;;;;;;;;;5034137;28;20029;-60
2022/02/07 04:32:12;;;;;;;67.60;10.32;;;;;;;;;;5034971;28;20029;-60
2022/02/07 04:34:40;;;;;;;67.72;9.40;;;;;;;;;;5034554;28;20163;-60
2022/02/07 04:37:07;;;;;;;45.13;8.38;;;;;;;;;;5016602;28;20479;-60
2022/02/07 04:39:34;;;;;;;43.78;8.02;;;;;;;;;;5034626;28;20458;-60
2022/02/07 04:42:06;;;;;;;47.97;7.75;;;;;;;;;;5033853;28;20072;-60
2022/02/07 04:44:40;;;;;;;55.88;8.32;;;;;;;;;;5034412;28;20033;-60
2022/02/07 04:50:03;;;;;;;62.50;8.85;;;;;;;;;;5034231;28;20045;-60
2022/02/07 04:53:08;;;;;;;;;;;;;;;;;;5034803;28;20048;-60
2022/02/07 04:56:01;;;;;;;44.70;6.90;;;;;;;;;;5033335;28;20397;-60
2022/02/07 05:01:31;;;;;;;31.23;4.68;;;;;;;;;;5033790;28;20111;-59
2022/02/07 05:04:09;;;;;;;30.17;4.50;;;;;;;;;;5033800;28;20415;-60
2022/02/07 05:14:52;;;;;;;19.65;3.20;;;;;;;;;;5033320;28;20048;-60
2022/02/07 05:17:20;;;;;;;15.55;2.90;;;;;;;;;;5033926;28;20083;-60
2022/02/07 05:19:48;;;;;;;17.52;2.67;;;;;;;;;;5033520;28;20776;-60
2022/02/07 05:22:16;;;;;;;11.43;2.00;;;;;;;;;;5033073;28;20118;-60
2022/02/07 05:24:43;;;;;;;12.85;1.45;;;;;;;;;;5033457;28;20087;-60
2022/02/07 05:27:10;;;;;;;9.68;1.70;;;;;;;;;;5033595;28;20026;-60
2022/02/07 05:29:37;;;;;;;12.63;1.95;;;;;;;;;;5033211;28;20022;-60
2022/02/07 05:32:05;;;;;;;11.48;2.00;;;;;;;;;;5033303;28;20025;-60
2022/02/07 05:34:32;;;;;;;4.97;1.23;;;;;;;;;;5032824;28;20047;-60
2022/02/07 05:36:59;;;;;;;9.00;1.70;;;;;;;;;;5033325;28;20052;-60
2022/02/07 05:39:32;;;;;;;10.82;1.77;;;;;;;;;;5033213;28;20049;-60
2022/02/07 05:42:04;;;;;;;6.93;1.00;;;;;;;;;;5032386;28;20034;-60
2022/02/07 05:44:31;;;;;;;7.38;1.48;;;;;;;;;;5033118;28;20037;-60
2022/02/07 05:46:59;;;;;;;3.63;1.00;;;;;;;;;;5032677;28;20037;-60
2022/02/07 05:49:26;;;;;;;3.90;0.80;;;;;;;;;;5033229;28;20041;-60
2022/02/07 05:51:56;;;;;;;3.70;0.70;;;;;;;;;;5033204;28;20068;-60
2022/02/07 05:54:24;;;;;;;3.70;1.00;;;;;;;;;;5032517;28;20029;-60
2022/02/07 05:56:51;;;;;;;5.32;0.85;;;;;;;;;;5033092;28;20038;-60
2022/02/07 05:59:18;;;;;;;3.67;0.80;;;;;;;;;;5032698;28;20033;-60
2022/02/07 06:01:45;;;;;;;5.05;0.65;;;;;;;;;;5032836;28;20399;-60
2022/02/07 06:04:12;;;;;;;2.80;0.70;;;;;;;;;;5032719;28;20040;-60
2022/02/07 06:06:39;;;;;;;1.67;0.60;;;;;;;;;;5032387;28;20505;-60
2022/02/07 06:09:09;;;;;;;2.97;0.88;;;;;;;;;;5032739;28;20467;-60
2022/02/07 06:11:36;;;;;;;1.73;0.60;;;;;;;;;;5032340;28;20530;-60
2022/02/07 06:14:04;;;;;;;3.38;0.68;;;;;;;;;;5032428;28;20026;-60
2022/02/07 06:16:32;;;;;;;2.88;0.80;;;;;;;;;;5014837;28;20068;-60
2022/02/07 06:19:01;;;;;;;4.47;0.70;;;;;;;;;;5031923;28;20045;-60
2022/02/07 06:21:32;;;;;;;2.65;0.70;;;;;;;;;;5032427;28;20040;-60
2022/02/07 06:24:01;;;;;;;2.03;0.82;;;;;;;;;;5031305;28;20049;-60
2022/02/07 06:26:29;;;;;;;1.42;0.70;;;;;;;;;;5032224;28;20063;-60
2022/02/07 06:28:57;;;;;;;2.30;0.60;;;;;;;;;;5032526;28;20029;-60
2022/02/07 06:31:25;;;;;;;2.80;0.63;;;;;;;;;;5014194;28;20036;-60
2022/02/07 06:33:52;;;;;;;4.25;0.70;;;;;;;;;;5032357;28;20061;-60
2022/02/07 06:36:20;;;;;;;2.70;0.73;;;;;;;;;;5031516;28;20543;-60
2022/02/07 06:38:47;;;;;;;2.70;0.70;;;;;;;;;;5034127;28;20132;-60
2022/02/07 06:41:15;;;;;;;1.30;0.40;;;;;;;;;;5032655;28;20095;-60
2022/02/07 06:43:42;;;;;;;3.22;0.70;;;;;;;;;;5032204;28;20601;-60
2022/02/07 06:46:09;;;;;;;2.97;0.70;;;;;;;;;;5031686;28;20097;-60
2022/02/07 06:48:36;;;;;;;2.85;0.60;;;;;;;;;;5032235;28;20030;-60
2022/02/07 06:51:04;;;;;;;1.63;0.60;;;;;;;;;;5032245;28;20029;-60
2022/02/07 06:53:31;;;;;;;2.33;0.70;;;;;;;;;;5031760;28;20021;-60
2022/02/07 06:55:58;;;;;;;6.72;1.15;;;;;;;;;;5032072;28;20395;-60
2022/02/07 06:58:25;;;;;;;8.05;1.33;;;;;;;;;;5031318;28;20041;-60
2022/02/07 07:00:52;;;;;;;8.85;1.48;;;;;;;;;;5032070;28;20032;-60
2022/02/07 07:03:21;;;;;;;9.55;2.33;;;;;;;;;;5031830;28;20057;-60
2022/02/07 07:05:51;;;;;;;10.88;2.75;;;;;;;;;;5031473;28;20065;-60
2022/02/07 07:11:29;;;;;;;11.85;2.97;;;;;;;;;;4995382;28;20574;-60
2022/02/07 07:17:12;;;;;;;10.27;2.50;;;;;;;;;;5033523;28;20578;-59
2022/02/07 07:20:05;;;;;;;6.82;1.95;;;;;;;;;;5016171;28;20112;-60
2022/02/07 07:22:33;;;;;;;4.60;1.38;;;;;;;;;;5030938;28;20044;-60
2022/02/07 07:25:01;;;;;;;6.07;1.40;;;;;;;;;;5030860;28;20076;-60
2022/02/07 07:27:33;;;;;;;4.90;1.40;;;;;;;;;;5031426;28;20029;-60
2022/02/07 07:30:00;;;;;;;5.45;1.15;;;;;;;;;;5030661;28;20068;-60
2022/02/07 07:32:28;;;;;;;2.80;0.80;;;;;;;;;;5031446;28;20084;-60
2022/02/07 07:34:56;;;;;;;4.03;0.98;;;;;;;;;;5030470;28;20117;-60
2022/02/07 07:37:23;;;;;;;3.60;1.08;;;;;;;;;;5030758;28;20048;-60
2022/02/07 07:39:50;;;;;;;2.78;0.70;;;;;;;;;;5030930;28;20132;-60
2022/02/07 07:42:18;;;;;;;6.45;0.85;;;;;;;;;;5030609;28;20049;-60
2022/02/07 07:44:47;;;;;;;2.28;0.60;;;;;;;;;;5031581;28;20345;-60
2022/02/07 07:47:19;;;;;;;5.93;0.95;;;;;;;;;;5033091;28;20095;-60
2022/02/07 07:50:04;;;;;;;3.13;0.60;;;;;;;;;;5031069;28;20423;-60
2022/02/07 07:52:48;;;;;;;2.80;0.65;;;;;;;;;;5030798;28;20109;-60
2022/02/07 08:03:15;;;;;;;1.88;0.52;;;;;;;;;;5031281;28;20525;-60
2022/02/07 08:05:49;;;;;;;1.77;0.70;;;;;;;;;;5030646;28;20037;-60
2022/02/07 08:11:22;;;;;;;3.55;0.60;;;;;;;;;;5030535;28;20386;-60
2022/02/07 08:13:43;;;;;;;1.60;0.50;;;;;;;;;;5026946;28;20495;-60
2022/02/07 08:16:11;;;;;;;1.67;0.50;;;;;;;;;;5030698;28;20503;-60
2022/02/07 08:18:38;;;;;;;0.90;0.40;;;;;;;;;;5030875;28;20029;-60
2022/02/07 08:21:05;;;;;;;1.83;0.70;;;;;;;;;;5031059;28;20037;-60
2022/02/07 08:23:33;;;;;;;2.83;0.80;;;;;;;;;;5030238;28;20076;-60
2022/02/07 08:26:02;;;;;;;8.10;4.15;;;;;;;;;;5030711;28;20037;-60
2022/02/07 08:28:29;;;;;;;23.90;10.07;;;;;;;;;;5030538;28;20804;-60
2022/02/07 08:30:56;;;;;;;35.75;16.52;;;;;;;;;;5030753;28;20037;-60
2022/02/07 08:33:24;;;;;;;44.08;19.77;;;;;;;;;;5030793;28;20032;-60
2022/02/07 08:35:51;;;;;;;77.78;33.85;;;;;;;;;;5030370;28;20095;-60
2022/02/07 08:38:19;;;;;;;112.50;48.65;;;;;;;;;;5030759;28;20415;-59
2022/02/07 08:40:47;;;;;;;109.13;48.30;;;;;;;;;;5030444;28;20029;-60
2022/02/07 08:43:14;;;;;;;108.60;51.10;;;;;;;;;;5030689;28;20037;-60
2022/02/07 08:45:41;;;;;;;123.07;49.03;;;;;;;;;;5030752;28;20029;-60
2022/02/07 08:48:10;;;;;;;96.63;42.67;;;;;;;;;;5034104;28;20079;-60
2022/02/07 08:50:37;;;;;;;94.22;40.38;;;;;;;;;;5034500;28;20553;-60
2022/02/07 08:53:05;;;;;;;80.60;37.03;;;;;;;;;;5034187;28;20506;-60
2022/02/07 08:55:36;;;;;;;92.97;40.58;;;;;;;;;;5034021;28;20045;-60
2022/02/07 08:58:08;;;;;;;86.72;40.05;;;;;;;;;;5034353;28;20077;-60
2022/02/07 09:00:42;;;;;;;92.68;42.03;;;;;;;;;;5034685;28;20029;-60
2022/02/07 09:05:47;;;;;;;106.45;50.00;;;;;;;;;;5033956;28;20100;-60
2022/02/07 09:10:44;;;;;;;126.75;53.92;;;;;;;;;;5034062;28;20048;-59
2022/02/07 09:13:11;;;;;;;127.47;56.20;;;;;;;;;;5033299;28;20107;-59
2022/02/07 09:18:07;;;;;;;121.40;45.67;;;;;;;;;;5034027;28;20480;-59
2022/02/07 09:20:37;;;;;;;101.72;44.65;;;;;;;;;;5033646;28;20053;-59
2022/02/07 09:23:06;;;;;;;104.32;47.05;;;;;;;;;;5033215;28;20037;-59
2022/02/07 09:25:33;;;;;;;106.35;47.58;;;;;;;;;;5015763;28;20391;-59
2022/02/07 09:28:00;;;;;;;102.45;47.47;;;;;;;;;;5033467;28;20091;-59
2022/02/07 09:30:28;;;;;;;113.85;49.33;;;;;;;;;;5033424;28;20033;-60
2022/02/07 09:32:55;;;;;;;114.03;50.17;;;;;;;;;;5033774;28;20029;-59
2022/02/07 09:35:22;;;;;;;111.72;52.88;;;;;;;;;;5032841;28;20033;-60
2022/02/07 09:37:49;;;;;;;124.32;52.45;;;;;;;;;;5033513;28;20119;-60
2022/02/07 09:40:19;;;;;;;127.68;53.72;;;;;;;;;;5033065;28;20440;-59
2022/02/07 09:42:54;;;;;;;116.55;50.97;;;;;;;;;;5033037;28;20047;-59
2022/02/07 09:45:31;;;;;;;151.98;53.03;;;;;;;;;;5033130;28;20037;-60
2022/02/07 09:48:03;;;;;;;111.72;46.45;;;;;;;;;;5032689;28;20038;-60
2022/02/07 09:50:30;;;;;;;108.28;43.53;;;;;;;;;;5033392;28;20029;-60
2022/02/07 09:52:57;;;;;;;99.57;37.78;;;;;;;;;;5032894;28;20032;-60
2022/02/07 09:55:24;;;;;;;95.10;34.42;;;;;;;;;;5033163;28;20037;-59
2022/02/07 09:57:54;;;;;;;91.13;29.30;;;;;;;;;;5032063;28;20503;-59
2022/02/07 10:00:26;;;;;;;77.00;30.75;;;;;;;;;;5032635;28;20103;-60
2022/02/07 10:03:17;;;;;;;63.97;22.30;;;;;;;;;;5032856;28;20120;-60
2022/02/07 10:05:56;;;;;;;72.82;24.08;;;;;;;;;;5032335;28;20033;-59
2022/02/07 10:11:15;;;;;;;36.38;14.00;;;;;;;;;;5032806;28;20037;-60
2022/02/07 10:13:57;;;;;;;29.33;10.50;;;;;;;;;;5032701;28;20037;-60
2022/02/07 10:36:26;;;;;;;9.57;2.63;;;;;;;;;;4994867;28;20042;-60
2022/02/07 10:42:19;;;;;;;7.65;2.60;;;;;;;;;;5032748;28;20765;-60
2022/02/07 10:44:49;;;;;;;9.70;2.08;;;;;;;;;;5006865;28;20045;-60
2022/02/07 10:47:27;;;;;;;11.80;1.95;;;;;;;;;;5032204;28;20037;-60
2022/02/07 10:50:10;;;;;;;10.75;1.77;;;;;;;;;;5032201;28;20099;-60
2022/02/07 10:52:48;;;;;;;5.20;1.42;;;;;;;;;;5013727;28;20029;-60
2022/02/07 10:55:25;;;;;;;7.50;1.60;;;;;;;;;;5031926;28;20033;-60
2022/02/07 10:57:53;;;;;;;7.35;1.70;;;;;;;;;;5031445;28;20033;-60
2022/02/07 11:00:29;;;;;;;9.23;1.90;;;;;;;;;;5031997;28;20033;-60
2022/02/07 11:03:06;;;;;;;15.95;2.05;;;;;;;;;;5031609;28;20048;-60
2022/02/07 11:05:42;;;;;;;15.80;1.75;;;;;;;;;;5031632;28;20087;-60
2022/02/07 11:11:11;;;;;;;8.18;2.10;;;;;;;;;;5031385;28;20765;-60
2022/02/07 11:19:40;;;;;;;11.40;1.92;;;;;;;;;;5017204;28;20045;-60
2022/02/07 11:27:41;;;;;;;14.43;1.80;;;;;;;;;;5026592;28;20426;-60
2022/02/07 11:30:12;;;;;;;7.40;1.95;;;;;;;;;;5031695;28;20041;-60
2022/02/07 11:32:46;;;;;;;12.70;1.70;;;;;;;;;;5030992;28;20037;-60
2022/02/07 11:35:15;;;;;;;14.93;1.98;;;;;;;;;;5031262;28;20430;-61
2022/02/07 11:37:43;;;;;;;11.52;1.92;;;;;;;;;;5030643;28;20036;-60
2022/02/07 11:40:28;;;;;;;12.90;1.98;;;;;;;;;;5031421;28;20493;-60
2022/02/07 11:43:09;;;;;;;12.00;2.25;;;;;;;;;;5031150;28;20048;-60
2022/02/07 11:45:56;;;;;;;22.00;2.05;;;;;;;;;;5030758;28;20091;-60
2022/02/07 11:48:22;;;;;;;15.65;2.05;;;;;;;;;;5031184;28;20454;-60
2022/02/07 11:50:49;;;;;;;13.50;2.00;;;;;;;;;;5030714;28;20387;-60
2022/02/07 11:53:21;;;;;;;16.30;2.53;;;;;;;;;;5031169;28;20496;-60
2022/02/07 11:55:55;;;;;;;12.30;1.77;;;;;;;;;;5030666;28;20394;-60
2022/02/07 11:58:27;;;;;;;16.83;2.00;;;;;;;;;;5030953;28;20091;-60
2022/02/07 12:00:58;;;;;;;13.53;2.40;;;;;;;;;;5030945;28;20109;-60
2022/02/07 12:03:26;;;;;;;12.20;1.60;;;;;;;;;;5030441;28;20350;-60
2022/02/07 12:05:56;;;;;;;10.95;1.90;;;;;;;;;;5030603;28;20124;-60
2022/02/07 12:08:25;;;;;;;13.50;1.90;;;;;;;;;;5030936;28;20033;-60
2022/02/07 12:11:05;;;;;;;13.80;1.63;;;;;;;;;;5030864;28;20033;-60
2022/02/07 12:13:32;;;;;;;9.00;1.58;;;;;;;;;;5030701;28;20038;-60
2022/02/07 12:16:04;;;;;;;12.68;1.73;;;;;;;;;;5029396;28;20487;-60
2022/02/07 12:18:31;;;;;;;12.15;1.50;;;;;;;;;;5030271;28;20030;-61
2022/02/07 12:21:25;;;;;;;16.40;2.20;;;;;;;;;;5030861;28;20036;-60
2022/02/07 12:23:55;;;;;;;18.58;2.10;;;;;;;;;;5033537;28;20080;-60
2022/02/07 12:26:23;;;;;;;11.73;1.77;;;;;;;;;;5033869;28;20079;-60
2022/02/07 12:28:57;;;;;;;18.40;2.00;;;;;;;;;;5025737;28;20034;-60
2022/02/07 12:31:24;;;;;;;20.10;2.35;;;;;;;;;;5021661;28;20096;-60
2022/02/07 12:34:00;;;;;;;15.77;1.83;;;;;;;;;;5024895;28;20029;-60
2022/02/07 12:36:29;;;;;;;15.75;2.25;;;;;;;;;;5023824;28;20026;-60
2022/02/07 12:38:57;;;;;;;8.38;1.50;;;;;;;;;;5021720;28;20766;-60
2022/02/07 12:41:26;;;;;;;11.75;2.17;;;;;;;;;;5028089;28;20674;-60
2022/02/07 12:43:55;;;;;;;10.73;2.08;;;;;;;;;;5033477;28;20046;-60
2022/02/07 12:46:27;;;;;;;11.10;1.90;;;;;;;;;;5034024;28;20041;-60
2022/02/07 12:49:00;;;;;;;15.93;2.22;;;;;;;;;;5034295;28;20425;-60
2022/02/07 12:51:29;;;;;;;14.52;2.00;;;;;;;;;;5033891;28;20445;-60
2022/02/07 12:53:57;;;;;;;16.13;1.88;;;;;;;;;;5034194;28;20025;-60
2022/02/07 12:56:30;;;;;;;13.52;1.67;;;;;;;;;;5033801;28;20111;-60
2022/02/07 12:58:57;;;;;;;19.08;2.38;;;;;;;;;;5023537;28;20034;-60
2022/02/07 13:01:39;;;;;;;18.55;2.40;;;;;;;;;;5022590;28;20075;-60
2022/02/07 13:04:16;;;;;;;13.80;2.08;;;;;;;;;;5022722;28;20046;-59
2022/02/07 13:06:44;;;;;;;19.73;2.50;;;;;;;;;;5016437;28;20710;-60
2022/02/07 13:09:24;;;;;;;27.58;3.00;;;;;;;;;;5013428;28;20061;-60
2022/02/07 13:12:12;;;;;;;22.75;2.67;;;;;;;;;;5014172;28;20038;-60
2022/02/07 13:14:43;;;;;;;20.27;2.35;;;;;;;;;;5030003;28;20029;-60
2022/02/07 13:17:11;;;;;;;19.80;2.45;;;;;;;;;;5033873;28;20566;-60
2022/02/07 13:19:40;;;;;;;45.13;3.75;;;;;;;;;;5033519;28;20033;-47
2022/02/07 13:22:07;;;;;;;24.23;2.83;;;;;;;;;;5022893;28;20083;-46
2022/02/07 13:24:38;;;;;;;30.20;2.60;;;;;;;;;;5030224;28;20037;-46
2022/02/07 13:27:10;;;;;;;21.85;2.45;;;;;;;;;;5025874;28;20037;-47
2022/02/07 13:29:42;;;;;;;20.98;2.67;;;;;;;;;;5031430;28;20083;-47
2022/02/07 13:32:09;;;;;;;15.13;2.60;;;;;;;;;;5030959;28;20060;-49
2022/02/07 13:34:37;;;;;;;14.48;2.33;;;;;;;;;;5032389;28;20017;-47
2022/02/07 13:37:08;;;;;;;30.08;2.88;;;;;;;;;;5033827;28;20112;-50
2022/02/07 13:39:55;;;;;;;24.83;3.00;;;;;;;;;;5024671;28;20045;-45
2022/02/07 13:42:30;;;;;;;24.20;2.92;;;;;;;;;;5020395;28;20045;-47
2022/02/07 13:44:58;;;;;;;43.03;3.22;;;;;;;;;;5024189;28;20037;-46
2022/02/07 13:47:26;;;;;;;46.97;3.10;;;;;;;;;;5027313;28;20022;-47
2022/02/07 13:49:54;;;;;;;36.28;3.58;;;;;;;;;;5030054;28;20124;-52
2022/02/07 13:52:21;;;;;;;36.85;3.88;;;;;;;;;;5007556;28;20995;-46
2022/02/07 13:54:49;;;;;;;39.53;4.25;;;;;;;;;;5026909;28;21562;-52
2022/02/07 13:57:16;;;;;;;33.55;3.45;;;;;;;;;;5029174;28;20495;-48
2022/02/07 13:59:43;;;;;;;13.57;1.80;;;;;;;;;;5032597;28;20022;-47
2022/02/07 14:02:29;;;;;;;41.53;3.90;;;;;;;;;;5020717;28;20029;-48
2022/02/07 14:04:56;;;;;;;92.00;6.65;;;;;;;;;;5010870;28;20030;-46
2022/02/07 14:07:25;;;;;;;64.47;4.82;;;;;;;;;;5016292;28;20044;-48
2022/02/07 14:09:52;;;;;;;66.93;6.75;;;;;;;;;;5027700;28;20376;-48
2022/02/07 14:12:19;;;;;;;55.60;4.18;;;;;;;;;;5025688;28;20021;-45
2022/02/07 14:14:46;;;;;;;49.15;4.55;;;;;;;;;;5021059;28;20108;-49
2022/02/07 14:17:14;;;;;;;35.33;4.45;;;;;;;;;;5024990;28;20025;-46
2022/02/07 14:19:51;;;;;;;44.78;4.07;;;;;;;;;;5030861;28;20568;-48
2022/02/07 14:22:18;;;;;;;45.72;4.03;;;;;;;;;;5026879;28;20135;-48
2022/02/07 14:24:45;;;;;;;29.48;3.65;;;;;;;;;;5023181;28;20029;-46
2022/02/07 14:27:12;;;;;;;27.27;3.50;;;;;;;;;;5013770;28;20095;-52
2022/02/07 14:29:39;;;;;;;21.17;2.88;;;;;;;;;;5026641;28;20025;-50
2022/02/07 14:32:06;;;;;;;25.88;3.30;;;;;;;;;;5029579;28;20104;-51
2022/02/07 14:34:34;;;;;;;39.55;3.53;;;;;;;;;;5029065;28;20033;-48
2022/02/07 14:37:07;;;;;;;33.10;3.50;;;;;;;;;;5028159;28;20536;-48
2022/02/07 14:39:36;;;;;;;39.95;3.92;;;;;;;;;;5026386;28;20410;-48
2022/02/07 14:42:07;;;;;;;17.10;2.72;;;;;;;;;;5024069;28;20042;-47
2022/02/07 14:44:42;;;;;;;68.10;4.68;;;;;;;;;;5008541;28;20041;-46
2022/02/07 14:47:15;;;;;;;34.30;3.20;;;;;;;;;;5010386;28;20037;-53
2022/02/07 14:49:42;;;;;;;26.90;2.92;;;;;;;;;;5025838;28;20043;-48
2022/02/07 14:52:09;;;;;;;22.27;1.98;;;;;;;;;;5030673;28;20030;-49
2022/02/07 14:54:36;;;;;;;25.45;2.40;;;;;;;;;;5020931;28;20040;-54
2022/02/07 14:57:03;;;;;;;21.02;2.40;;;;;;;;;;5029686;28;20373;-49
2022/02/07 14:59:30;;;;;;;19.67;2.45;;;;;;;;;;5026590;28;20037;-49
2022/02/07 15:01:57;;;;;;;24.02;2.60;;;;;;;;;;5027574;28;20033;-50
2022/02/07 15:04:24;;;;;;;24.80;2.53;;;;;;;;;;5029372;28;20132;-49
2022/02/07 15:06:51;;;;;;;25.85;2.80;;;;;;;;;;5028947;28;20041;-52
2022/02/07 15:09:18;;;;;;;39.35;3.90;;;;;;;;;;5029521;28;20040;-50
2022/02/07 15:11:45;;;;;;;32.28;3.92;;;;;;;;;;5024003;28;20104;-52
2022/02/07 15:14:13;;;;;;;28.02;3.97;;;;;;;;;;5024178;28;20018;-52
2022/02/07 15:16:40;;;;;;;34.15;3.95;;;;;;;;;;5016337;28;20510;-51
2022/02/07 15:19:07;;;;;;;27.15;2.88;;;;;;;;;;5026961;28;20495;-53
2022/02/07 15:21:34;;;;;;;25.48;2.78;;;;;;;;;;5029698;28;20041;-56
2022/02/07 15:24:01;;;;;;;28.05;3.65;;;;;;;;;;5023510;28;20041;-51
2022/02/07 15:26:28;;;;;;;19.77;3.00;;;;;;;;;;5029826;28;20032;-52
2022/02/07 15:28:55;;;;;;;22.63;3.17;;;;;;;;;;5028195;28;20034;-54
2022/02/07 15:31:29;;;;;;;40.70;3.72;;;;;;;;;;5029774;28;20026;-53
2022/02/07 15:33:56;;;;;;;37.20;3.85;;;;;;;;;;5029201;28;20033;-56
2022/02/07 15:36:25;;;;;;;50.03;4.93;;;;;;;;;;5023669;28;20056;-53
2022/02/07 15:38:53;;;;;;;30.92;3.80;;;;;;;;;;5021705;28;20470;-49
2022/02/07 15:41:20;;;;;;;43.92;4.88;;;;;;;;;;5018476;28;20557;-52
2022/02/07 15:43:47;;;;;;;35.28;4.05;;;;;;;;;;5020836;28;20041;-54
2022/02/07 15:46:14;;;;;;;41.22;4.78;;;;;;;;;;5018323;28;20068;-53
2022/02/07 15:48:41;;;;;;;35.58;4.20;;;;;;;;;;5015299;28;20052;-54
2022/02/07 15:51:09;;;;;;;30.73;4.78;;;;;;;;;;5011435;28;20025;-54
2022/02/07 15:53:37;;;;;;;35.28;3.88;;;;;;;;;;5009954;28;20037;-54
2022/02/07 15:56:07;;;;;;;34.15;4.65;;;;;;;;;;5014479;28;20033;-54
2022/02/07 15:58:35;;;;;;;35.40;4.15;;;;;;;;;;5023798;28;20113;-55
2022/02/07 16:01:02;;;;;;;32.72;4.00;;;;;;;;;;5031167;28;20036;-51
2022/02/07 16:03:29;;;;;;;27.50;4.10;;;;;;;;;;5021976;28;20044;-53
2022/02/07 16:05:56;;;;;;;38.22;5.65;;;;;;;;;;5024754;28;20032;-52
2022/02/07 16:08:23;;;;;;;48.67;6.90;;;;;;;;;;5028924;28;20029;-55
2022/02/07 16:10:50;;;;;;;41.20;7.57;;;;;;;;;;5034505;28;20112;-55
2022/02/07 16:13:20;;;;;;;42.30;6.72;;;;;;;;;;5034596;28;20099;-51
2022/02/07 16:15:48;;;;;;;33.72;6.60;;;;;;;;;;5033917;28;20395;-52
2022/02/07 16:18:19;;;;;;;36.17;6.22;;;;;;;;;;5034659;28;20024;-50
2022/02/07 16:20:49;;;;;;;42.22;6.78;;;;;;;;;;5034294;28;20070;-53
2022/02/07 16:23:17;;;;;;;43.42;7.15;;;;;;;;;;5034013;28;20455;-53
2022/02/07 16:25:46;;;;;;;33.50;8.15;;;;;;;;;;5034303;28;20033;-54
2022/02/07 16:28:14;;;;;;;30.75;7.53;;;;;;;;;;5033932;28;20102;-52
2022/02/07 16:30:41;;;;;;;33.83;7.50;;;;;;;;;;5034178;28;20052;-54
2022/02/07 16:33:08;;;;;;;49.10;8.60;;;;;;;;;;5033478;28;20037;-54
2022/02/07 16:35:39;;;;;;;47.05;8.27;;;;;;;;;;5031069;28;20391;-54
2022/02/07 16:38:07;;;;;;;41.42;7.03;;;;;;;;;;5022633;28;20061;-52
2022/02/07 16:40:35;;;;;;;33.42;7.40;;;;;;;;;;5023687;28;20399;-56
2022/02/07 16:43:02;;;;;;;37.80;8.13;;;;;;;;;;5032319;28;20033;-51
2022/02/07 16:48:15;;;;;;;47.70;7.47;;;;;;;;;;5028786;28;20034;-53
2022/02/07 16:50:43;;;;;;;37.90;6.93;;;;;;;;;;5015154;28;20163;-51
2022/02/07 16:53:10;;;;;;;37.42;6.95;;;;;;;;;;5030674;28;20035;-49
2022/02/07 16:55:37;;;;;;;29.75;6.15;;;;;;;;;;5033036;28;20037;-49
2022/02/07 16:58:04;;;;;;;38.85;5.88;;;;;;;;;;5033017;28;20033;-50
2022/02/07 17:00:32;;;;;;;26.25;6.22;;;;;;;;;;5033491;28;20049;-49
2022/02/07 17:02:59;;;;;;;34.45;5.47;;;;;;;;;;5032985;28;20124;-52
2022/02/07 17:05:26;;;;;;;34.00;5.93;;;;;;;;;;5033072;28;20040;-52